createdAt,value
2023-01-29T00:01:56.156Z,102550.78
2023-01-29T00:04:23.010Z,102562.78
2023-01-29T00:06:49.638Z,102551.69
2023-01-29T00:09:16.286Z,102546.56
2023-01-29T00:11:42.944Z,102544.88
2023-01-29T00:14:09.819Z,102555.13
2023-01-29T00:16:36.445Z,102553.41
2023-01-29T00:19:04.134Z,102533.75
2023-01-29T00:21:32.195Z,102546.63
2023-01-29T00:23:59.767Z,102536.28
2023-01-29T00:26:27.247Z,102544.91
2023-01-29T00:28:53.909Z,102545.75
2023-01-29T00:31:23.028Z,102541.47
2023-01-29T00:33:50.531Z,102534.53
2023-01-29T00:36:18.998Z,102534.63
2023-01-29T00:38:54.492Z,102532.94
2023-01-29T00:41:40.800Z,102526.94
2023-01-29T00:44:26.287Z,102537.16
2023-01-29T00:46:52.892Z,102540.50
2023-01-29T00:49:19.440Z,102524.28
2023-01-29T00:52:05.978Z,102514.03
2023-01-29T00:54:33.251Z,102520.94
2023-01-29T00:57:00.256Z,102526.06
2023-01-29T00:59:27.031Z,102520.94
2023-01-29T01:02:11.797Z,102507.19
2023-01-29T01:04:38.477Z,102502.09
2023-01-29T01:07:05.227Z,102521.75
2023-01-29T01:09:50.072Z,102506.28
2023-01-29T01:12:16.559Z,102531.13
2023-01-29T01:14:43.330Z,102537.09
2023-01-29T01:17:09.842Z,102537.13
2023-01-29T01:19:36.509Z,102537.97
2023-01-29T01:22:04.946Z,102529.41
2023-01-29T01:24:32.154Z,102529.41
2023-01-29T01:26:58.822Z,102529.47
2023-01-29T01:29:25.343Z,102530.28
2023-01-29T01:31:53.844Z,102534.63
2023-01-29T01:34:22.066Z,102524.34
2023-01-29T01:36:48.926Z,102504.59
2023-01-29T01:39:15.670Z,102506.28
2023-01-29T01:41:42.180Z,102507.19
2023-01-29T01:44:47.386Z,102502.09
2023-01-29T01:47:15.620Z,102495.28
2023-01-29T01:49:43.412Z,102497.81
2023-01-29T01:52:11.919Z,102501.22
2023-01-29T01:54:38.489Z,102506.34
2023-01-29T01:57:11.604Z,102501.22
2023-01-29T01:59:40.393Z,102502.91
2023-01-29T02:02:26.426Z,102497.78
2023-01-29T02:05:11.753Z,102502.00
2023-01-29T02:08:02.776Z,102499.44
2023-01-29T02:10:31.854Z,102496.88
2023-01-29T02:12:58.399Z,102492.56
2023-01-29T02:15:24.916Z,102505.44
2023-01-29T02:17:51.459Z,102504.53
2023-01-29T02:20:26.605Z,102496.84
2023-01-29T02:23:11.152Z,102506.25
2023-01-29T02:26:15.389Z,102504.53
2023-01-29T02:28:53.695Z,102495.16
2023-01-29T02:31:38.208Z,102508.78
2023-01-29T02:35:22.250Z,102529.25
2023-01-29T02:38:23.751Z,102530.13
2023-01-29T02:41:03.805Z,102539.41
2023-01-29T02:43:54.931Z,102546.34
2023-01-29T02:46:28.006Z,102547.13
2023-01-29T02:49:06.748Z,102558.31
2023-01-29T02:51:59.689Z,102556.59
2023-01-29T02:54:47.659Z,102556.50
2023-01-29T02:57:29.065Z,102551.47
2023-01-29T03:00:27.651Z,102554.91
2023-01-29T03:03:07.457Z,102548.03
2023-01-29T03:05:45.706Z,102529.25
2023-01-29T03:08:18.420Z,102533.63
2023-01-29T03:10:57.638Z,102540.41
2023-01-29T03:13:33.249Z,102531.88
2023-01-29T03:16:12.140Z,102525.88
2023-01-29T03:18:48.685Z,102517.34
2023-01-29T03:21:43.213Z,102502.81
2023-01-29T03:24:31.918Z,102497.66
2023-01-29T03:27:23.159Z,102500.19
2023-01-29T03:30:11.619Z,102518.16
2023-01-29T03:32:38.660Z,102523.25
2023-01-29T03:35:08.356Z,102518.06
2023-01-29T03:37:45.453Z,102516.31
2023-01-29T03:40:13.383Z,102526.56
2023-01-29T03:42:49.245Z,102532.50
2023-01-29T03:45:23.861Z,102524.81
2023-01-29T03:48:13.161Z,102539.31
2023-01-29T03:51:08.956Z,102540.13
2023-01-29T03:53:58.537Z,102536.69
2023-01-29T03:56:33.904Z,102539.25
2023-01-29T03:59:18.518Z,102535.78
2023-01-29T04:02:27.917Z,102526.41
2023-01-29T04:05:02.720Z,102527.25
2023-01-29T04:07:33.345Z,102517.88
2023-01-29T04:10:09.789Z,102521.25
2023-01-29T04:12:43.126Z,102512.72
2023-01-29T04:15:15.373Z,102509.25
2023-01-29T04:17:47.569Z,102510.13
2023-01-29T04:20:14.209Z,102500.72
2023-01-29T04:22:45.166Z,102506.72
2023-01-29T04:25:16.219Z,102499.00
2023-01-29T04:28:01.782Z,102503.22
2023-01-29T04:30:43.603Z,102498.97
2023-01-29T04:33:57.812Z,102490.41
2023-01-29T04:36:45.453Z,102483.56
2023-01-29T04:39:19.111Z,102471.69
2023-01-29T04:42:27.213Z,102475.09
2023-01-29T04:45:24.637Z,102469.97
2023-01-29T04:48:01.115Z,102458.81
2023-01-29T04:50:49.320Z,102467.41
2023-01-29T04:53:23.083Z,102473.41
2023-01-29T04:56:02.606Z,102460.53
2023-01-29T04:58:33.312Z,102480.16
2023-01-29T05:01:02.943Z,102471.66
2023-01-29T05:03:31.303Z,102431.47
2023-01-29T05:06:00.672Z,102458.91
2023-01-29T05:08:29.857Z,102440.88
2023-01-29T05:10:58.869Z,102459.69
2023-01-29T05:13:28.161Z,102451.16
2023-01-29T05:16:02.098Z,102463.09
2023-01-29T05:18:30.514Z,102463.06
2023-01-29T05:20:59.908Z,102456.25
2023-01-29T05:23:26.463Z,102443.41
2023-01-29T05:25:53.151Z,102410.94
2023-01-29T05:28:19.713Z,102443.47
2023-01-29T05:30:49.029Z,102441.81
2023-01-29T05:33:30.374Z,102441.84
2023-01-29T05:35:59.594Z,102450.44
2023-01-29T05:38:26.266Z,102446.19
2023-01-29T05:40:52.748Z,102438.50
2023-01-29T05:43:24.151Z,102452.97
2023-01-29T05:45:55.597Z,102435.78
2023-01-29T05:48:22.511Z,102457.22
2023-01-29T05:50:49.176Z,102447.84
2023-01-29T05:53:15.645Z,102442.72
2023-01-29T05:55:46.507Z,102440.22
2023-01-29T05:58:12.998Z,102435.94
2023-01-29T06:00:40.169Z,102422.22
2023-01-29T06:03:06.961Z,102444.47
2023-01-29T06:05:33.544Z,102432.53
2023-01-29T06:08:00.008Z,102445.31
2023-01-29T06:10:26.610Z,102447.84
2023-01-29T06:12:53.158Z,102452.09
2023-01-29T06:15:19.767Z,102446.16
2023-01-29T06:17:46.321Z,102458.97
2023-01-29T06:20:13.113Z,102459.81
2023-01-29T06:22:39.634Z,102472.59
2023-01-29T06:25:06.843Z,102472.59
2023-01-29T06:27:33.388Z,102480.28
2023-01-29T06:29:59.799Z,102487.09
2023-01-29T06:32:26.374Z,102496.47
2023-01-29T06:34:53.227Z,102497.31
2023-01-29T06:37:19.719Z,102499.00
2023-01-29T06:39:46.162Z,102510.94
2023-01-29T06:42:12.679Z,102508.44
2023-01-29T06:44:39.163Z,102496.47
2023-01-29T06:47:05.646Z,102493.13
2023-01-29T06:49:32.543Z,102489.75
2023-01-29T06:51:58.979Z,102505.16
2023-01-29T06:54:25.494Z,102491.50
2023-01-29T06:56:52.326Z,102495.00
2023-01-29T06:59:18.798Z,102495.78
2023-01-29T07:01:45.400Z,102479.63
2023-01-29T07:04:11.956Z,102479.66
2023-01-29T07:06:38.471Z,102463.50
2023-01-29T07:09:05.244Z,102459.22
2023-01-29T07:11:34.039Z,102454.19
2023-01-29T07:14:00.644Z,102457.59
2023-01-29T07:16:27.273Z,102473.84
2023-01-29T07:18:53.911Z,102479.81
2023-01-29T07:21:20.498Z,102453.41
2023-01-29T07:23:47.310Z,102441.38
2023-01-29T07:26:13.865Z,102476.50
2023-01-29T07:28:40.902Z,102469.75
2023-01-29T07:31:08.424Z,102472.28
2023-01-29T07:33:35.051Z,102475.75
2023-01-29T07:36:07.191Z,102472.38
2023-01-29T07:38:33.744Z,102475.81
2023-01-29T07:41:01.358Z,102458.72
2023-01-29T07:43:30.221Z,102470.72
2023-01-29T07:45:56.937Z,102463.91
2023-01-29T07:48:23.674Z,102469.03
2023-01-29T07:50:56.634Z,102456.25
2023-01-29T07:53:23.755Z,102457.13
2023-01-29T07:55:50.640Z,102452.00
2023-01-29T07:58:17.263Z,102464.00
2023-01-29T08:00:44.291Z,102464.84
2023-01-29T08:03:16.833Z,102470.00
2023-01-29T08:05:46.752Z,102469.19
2023-01-29T08:08:13.638Z,102450.41
2023-01-29T08:10:40.763Z,102451.25
2023-01-29T08:13:07.427Z,102452.16
2023-01-29T08:15:37.184Z,102441.00
2023-01-29T08:18:05.391Z,102452.97
2023-01-29T08:20:31.953Z,102468.38
2023-01-29T08:23:03.504Z,102467.50
2023-01-29T08:25:30.277Z,102472.63
2023-01-29T08:28:00.718Z,102475.22
2023-01-29T08:30:33.319Z,102476.94
2023-01-29T08:32:59.894Z,102475.25
2023-01-29T08:35:26.599Z,102476.13
2023-01-29T08:37:59.436Z,102473.56
2023-01-29T08:40:27.624Z,102466.72
2023-01-29T08:43:02.739Z,102452.22
2023-01-29T08:45:31.203Z,102462.50
2023-01-29T08:47:57.819Z,102449.69
2023-01-29T08:50:24.537Z,102455.69
2023-01-29T08:52:51.298Z,102441.16
2023-01-29T08:55:18.207Z,102415.53
2023-01-29T08:57:45.006Z,102441.19
2023-01-29T09:00:12.148Z,102433.53
2023-01-29T09:02:38.662Z,102445.47
2023-01-29T09:05:05.961Z,102444.59
2023-01-29T09:07:32.520Z,102444.63
2023-01-29T09:09:59.067Z,102447.22
2023-01-29T09:12:25.709Z,102448.91
2023-01-29T09:14:52.250Z,102457.50
2023-01-29T09:17:18.789Z,102453.25
2023-01-29T09:19:45.420Z,102443.84
2023-01-29T09:22:12.036Z,102431.06
2023-01-29T09:24:38.879Z,102424.22
2023-01-29T09:27:06.205Z,102409.69
2023-01-29T09:29:35.682Z,102425.06
2023-01-29T09:32:03.677Z,102413.97
2023-01-29T09:34:30.196Z,102416.53
2023-01-29T09:36:56.766Z,102419.13
2023-01-29T09:39:23.315Z,102412.28
2023-01-29T09:41:58.485Z,102414.00
2023-01-29T09:44:47.092Z,102417.44
2023-01-29T09:47:17.946Z,102416.59
2023-01-29T09:49:53.621Z,102396.94
2023-01-29T09:52:31.612Z,102405.50
2023-01-29T09:55:04.430Z,102405.50
2023-01-29T09:57:41.168Z,102390.09
2023-01-29T10:00:20.492Z,102396.06
2023-01-29T10:03:15.246Z,102390.06
2023-01-29T10:05:53.733Z,102380.66
2023-01-29T10:08:39.127Z,102389.19
2023-01-29T10:11:39.926Z,102378.91
2023-01-29T10:14:37.866Z,102384.00
2023-01-29T10:17:10.161Z,102383.13
2023-01-29T10:20:01.295Z,102362.59
2023-01-29T10:22:33.684Z,102383.97
2023-01-29T10:25:18.417Z,102391.66
2023-01-29T10:27:53.023Z,102385.69
2023-01-29T10:30:28.819Z,102388.28
2023-01-29T10:32:59.188Z,102381.47
2023-01-29T10:35:50.831Z,102388.31
2023-01-29T10:38:38.464Z,102383.16
2023-01-29T10:41:11.092Z,102390.84
2023-01-29T10:43:58.163Z,102370.38
2023-01-29T10:47:08.660Z,102370.34
2023-01-29T10:49:38.984Z,102371.16
2023-01-29T10:52:26.333Z,102360.09
2023-01-29T10:55:19.704Z,102348.94
2023-01-29T10:58:08.015Z,102370.28
2023-01-29T11:00:40.312Z,102325.00
2023-01-29T11:03:28.332Z,102361.69
2023-01-29T11:06:24.195Z,102357.41
2023-01-29T11:08:59.907Z,102346.28
2023-01-29T11:11:55.225Z,102347.13
2023-01-29T11:14:27.298Z,102341.94
2023-01-29T11:16:54.079Z,102334.16
2023-01-29T11:19:40.298Z,102333.31
2023-01-29T11:22:16.007Z,102330.72
2023-01-29T11:24:43.154Z,102333.34
2023-01-29T11:27:25.785Z,102325.56
2023-01-29T11:29:55.884Z,102329.81
2023-01-29T11:32:22.384Z,102322.09
2023-01-29T11:35:06.048Z,102322.06
2023-01-29T11:37:41.197Z,102320.38
2023-01-29T11:40:35.757Z,102307.50
2023-01-29T11:43:22.922Z,102306.59
2023-01-29T11:45:53.267Z,102309.13
2023-01-29T11:48:22.990Z,102286.81
2023-01-29T11:51:10.194Z,102291.06
2023-01-29T11:53:40.733Z,102289.31
2023-01-29T11:56:20.167Z,102279.81
2023-01-29T11:58:49.114Z,102282.31
2023-01-29T12:01:23.440Z,102270.28
2023-01-29T12:03:53.908Z,102248.88
2023-01-29T12:06:23.860Z,102254.88
2023-01-29T12:08:59.614Z,102245.44
2023-01-29T12:11:33.337Z,102249.66
2023-01-29T12:14:02.400Z,102235.94
2023-01-29T12:16:36.667Z,102236.81
2023-01-29T12:19:16.502Z,102219.69
2023-01-29T12:22:22.397Z,102207.66
2023-01-29T12:25:20.626Z,102204.22
2023-01-29T12:27:56.109Z,102199.84
2023-01-29T12:30:29.329Z,102184.41
2023-01-29T12:33:14.366Z,102175.78
2023-01-29T12:35:50.119Z,102170.56
2023-01-29T12:38:19.513Z,102152.50
2023-01-29T12:40:55.217Z,102142.16
2023-01-29T12:43:36.167Z,102130.97
2023-01-29T12:46:03.254Z,102144.44
2023-01-29T12:48:41.913Z,102144.41
2023-01-29T12:51:18.972Z,102140.03
2023-01-29T12:54:09.086Z,102139.94
2023-01-29T12:56:48.014Z,102127.03
2023-01-29T12:59:17.435Z,102119.25
2023-01-29T13:01:58.091Z,102115.88
2023-01-29T13:04:36.004Z,102117.56
2023-01-29T13:07:25.952Z,102114.94
2023-01-29T13:09:59.056Z,102102.06
2023-01-29T13:12:25.868Z,102101.19
2023-01-29T13:14:57.641Z,102092.56
2023-01-29T13:17:36.416Z,102076.22
2023-01-29T13:20:16.167Z,102073.56
2023-01-29T13:22:44.685Z,102068.34
2023-01-29T13:25:19.554Z,102067.47
2023-01-29T13:27:47.804Z,102073.34
2023-01-29T13:30:29.116Z,102071.56
2023-01-29T13:33:09.126Z,102073.19
2023-01-29T13:35:42.786Z,102072.28
2023-01-29T13:38:33.371Z,102084.19
2023-01-29T13:41:10.372Z,102088.53
2023-01-29T13:43:40.279Z,102088.44
2023-01-29T13:46:17.694Z,102097.84
2023-01-29T13:48:48.427Z,102102.88
2023-01-29T13:51:22.733Z,102084.94
2023-01-29T13:54:18.176Z,102095.16
2023-01-29T13:56:59.179Z,102096.94
2023-01-29T13:59:51.949Z,102098.69
2023-01-29T14:02:29.752Z,102100.38
2023-01-29T14:05:31.485Z,102095.19
2023-01-29T14:08:01.720Z,102091.66
2023-01-29T14:10:34.168Z,102096.81
2023-01-29T14:13:03.769Z,102097.53
2023-01-29T14:15:33.605Z,102096.72
2023-01-29T14:18:05.905Z,102094.97
2023-01-29T14:21:05.972Z,102086.25
2023-01-29T14:23:41.228Z,102082.06
2023-01-29T14:26:34.415Z,102094.97
2023-01-29T14:29:25.445Z,102089.09
2023-01-29T14:32:00.598Z,102090.78
2023-01-29T14:34:34.075Z,102089.09
2023-01-29T14:37:29.754Z,102083.16
2023-01-29T14:40:07.888Z,102072.00
2023-01-29T14:42:44.049Z,102065.97
2023-01-29T14:45:22.406Z,102062.69
2023-01-29T14:47:48.838Z,102070.50
2023-01-29T14:50:34.664Z,102079.03
2023-01-29T14:53:34.182Z,102073.88
2023-01-29T14:56:19.190Z,102073.91
2023-01-29T14:58:52.441Z,102080.00
2023-01-29T15:01:21.391Z,102077.44
2023-01-29T15:03:53.835Z,102072.28
2023-01-29T15:06:45.909Z,102077.53
2023-01-29T15:09:15.203Z,102080.09
2023-01-29T15:12:03.387Z,102043.56
2023-01-29T15:14:41.981Z,102072.38
2023-01-29T15:17:18.619Z,102080.09
2023-01-29T15:19:50.506Z,102073.25
2023-01-29T15:22:19.858Z,102067.22
2023-01-29T15:25:01.568Z,102077.53
2023-01-29T15:27:29.051Z,102073.25
2023-01-29T15:30:02.018Z,102072.34
2023-01-29T15:32:35.547Z,102062.97
2023-01-29T15:35:08.502Z,102057.75
2023-01-29T15:37:36.432Z,102051.78
2023-01-29T15:40:06.916Z,102040.75
2023-01-29T15:42:48.523Z,102042.28
2023-01-29T15:45:35.068Z,102038.09
2023-01-29T15:48:13.941Z,102037.22
2023-01-29T15:50:42.271Z,102044.91
2023-01-29T15:53:15.814Z,102041.53
2023-01-29T15:55:43.349Z,102030.28
2023-01-29T15:58:17.892Z,102042.34
2023-01-29T16:00:53.071Z,102034.56
2023-01-29T16:03:23.140Z,102031.97
2023-01-29T16:05:51.651Z,102038.00
2023-01-29T16:08:20.743Z,102037.13
2023-01-29T16:10:52.615Z,102033.66
2023-01-29T16:13:23.031Z,102046.50
2023-01-29T16:16:01.489Z,102035.41
2023-01-29T16:18:39.487Z,102033.72
2023-01-29T16:21:24.505Z,102031.16
2023-01-29T16:23:55.642Z,102032.84
2023-01-29T16:26:33.090Z,102020.84
2023-01-29T16:29:07.221Z,102013.03
2023-01-29T16:31:35.580Z,102003.66
2023-01-29T16:34:09.144Z,102000.97
2023-01-29T16:36:36.240Z,101994.16
2023-01-29T16:39:13.058Z,101989.06
2023-01-29T16:41:39.756Z,101971.22
2023-01-29T16:44:21.412Z,101986.53
2023-01-29T16:46:51.131Z,101984.00
2023-01-29T16:49:40.737Z,101987.44
2023-01-29T16:52:28.295Z,101983.16
2023-01-29T16:55:14.342Z,101967.88
2023-01-29T16:57:47.665Z,101981.47
2023-01-29T17:00:22.177Z,101976.28
2023-01-29T17:02:52.516Z,101977.28
2023-01-29T17:05:35.017Z,101986.59
2023-01-29T17:08:02.590Z,101965.28
2023-01-29T17:10:30.571Z,101981.47
2023-01-29T17:12:59.063Z,101971.13
2023-01-29T17:15:46.182Z,101969.47
2023-01-29T17:18:18.804Z,101961.69
2023-01-29T17:20:45.399Z,101984.00
2023-01-29T17:23:12.027Z,101968.53
2023-01-29T17:25:38.919Z,101964.31
2023-01-29T17:28:05.982Z,101958.25
2023-01-29T17:30:37.168Z,101954.88
2023-01-29T17:33:30.077Z,101956.47
2023-01-29T17:35:56.844Z,101960.91
2023-01-29T17:38:26.477Z,101953.91
2023-01-29T17:41:00.084Z,101947.97
2023-01-29T17:43:26.626Z,101937.81
2023-01-29T17:45:53.794Z,101929.16
2023-01-29T17:48:25.117Z,101933.38
2023-01-29T17:50:54.825Z,101923.19
2023-01-29T17:53:24.847Z,101938.53
2023-01-29T17:55:53.174Z,101939.38
2023-01-29T17:58:19.666Z,101936.78
2023-01-29T18:00:47.216Z,101942.81
2023-01-29T18:03:14.117Z,101918.06
2023-01-29T18:05:42.548Z,101937.66
2023-01-29T18:08:22.316Z,101926.50
2023-01-29T18:10:48.838Z,101913.63
2023-01-29T18:13:15.397Z,101901.69
2023-01-29T18:15:41.995Z,101902.59
2023-01-29T18:18:14.129Z,101905.09
2023-01-29T18:20:41.324Z,101898.31
2023-01-29T18:23:08.541Z,101909.34
2023-01-29T18:25:35.170Z,101900.81
2023-01-29T18:28:02.713Z,101889.59
2023-01-29T18:30:29.772Z,101902.50
2023-01-29T18:32:57.568Z,101908.47
2023-01-29T18:35:27.389Z,101889.69
2023-01-29T18:38:03.410Z,101890.41
2023-01-29T18:40:31.802Z,101885.25
2023-01-29T18:43:00.908Z,101876.66
2023-01-29T18:45:28.681Z,101874.16
2023-01-29T18:47:56.009Z,101877.44
2023-01-29T18:50:26.396Z,101871.59
2023-01-29T18:52:54.380Z,101857.94
2023-01-29T18:55:21.978Z,101862.00
2023-01-29T18:58:26.691Z,101861.16
2023-01-29T19:00:39.927Z,101860.28
2023-01-29T19:03:06.509Z,101867.03
2023-01-29T19:05:33.827Z,101859.31
2023-01-29T19:08:00.408Z,101845.66
2023-01-29T19:10:26.947Z,101849.94
2023-01-29T19:12:53.445Z,101833.59
2023-01-29T19:15:22.010Z,101844.75
2023-01-29T19:17:51.934Z,101846.53
2023-01-29T19:20:18.932Z,101852.47
2023-01-29T19:22:45.546Z,101847.25
2023-01-29T19:25:12.742Z,101845.66
2023-01-29T19:27:39.650Z,101843.88
2023-01-29T19:30:07.186Z,101851.56
2023-01-29T19:32:34.594Z,101836.03
2023-01-29T19:35:01.077Z,101834.28
2023-01-29T19:37:30.577Z,101827.38
2023-01-29T19:39:57.144Z,101826.44
2023-01-29T19:42:23.876Z,101810.97
2023-01-29T19:44:52.049Z,101811.00
2023-01-29T19:47:18.990Z,101815.22
2023-01-29T19:49:45.647Z,101799.72
2023-01-29T19:52:41.423Z,101786.97
2023-01-29T19:55:16.501Z,101798.88
2023-01-29T19:57:43.225Z,101781.69
2023-01-29T20:00:12.151Z,101774.78
2023-01-29T20:02:38.789Z,101771.53
2023-01-29T20:05:07.045Z,101776.56
2023-01-29T20:07:35.958Z,101771.34
2023-01-29T20:10:02.752Z,101767.06
2023-01-29T20:12:29.958Z,101775.53
2023-01-29T20:14:56.580Z,101759.25
2023-01-29T20:17:23.117Z,101762.66
2023-01-29T20:19:49.651Z,101742.09
2023-01-29T20:22:16.158Z,101746.28
2023-01-29T20:24:42.889Z,101745.34
2023-01-29T20:27:10.838Z,101730.75
2023-01-29T20:29:39.032Z,101725.59
2023-01-29T20:32:08.731Z,101710.13
2023-01-29T20:34:35.674Z,101699.72
2023-01-29T20:37:02.202Z,101688.72
2023-01-29T20:39:28.833Z,101682.75
2023-01-29T20:41:57.268Z,101699.69
2023-01-29T20:44:25.023Z,101697.13
2023-01-29T20:46:51.753Z,101685.94
2023-01-29T20:49:18.427Z,101695.34
2023-01-29T20:51:45.739Z,101696.94
2023-01-29T20:54:12.775Z,101693.53
2023-01-29T20:56:45.889Z,101690.81
2023-01-29T20:59:13.830Z,101683.09
2023-01-29T21:01:41.309Z,101689.84
2023-01-29T21:04:07.824Z,101692.31
2023-01-29T21:06:34.396Z,101693.16
2023-01-29T21:09:00.908Z,101685.38
2023-01-29T21:11:28.559Z,101680.19
2023-01-29T21:13:57.775Z,101682.84
2023-01-29T21:16:26.217Z,101694.69
2023-01-29T21:18:57.267Z,101683.56
2023-01-29T21:21:24.117Z,101687.75
2023-01-29T21:23:50.610Z,101684.25
2023-01-29T21:26:17.141Z,101689.34
2023-01-29T21:28:43.666Z,101673.81
2023-01-29T21:31:14.565Z,101672.00
2023-01-29T21:33:41.132Z,101666.75
2023-01-29T21:36:10.129Z,101648.72
2023-01-29T21:38:37.134Z,101652.00
2023-01-29T21:41:05.907Z,101660.47
2023-01-29T21:43:33.025Z,101659.56
2023-01-29T21:46:05.044Z,101665.63
2023-01-29T21:48:31.887Z,101668.53
2023-01-29T21:50:58.406Z,101662.53
2023-01-29T21:53:24.966Z,101678.66
2023-01-29T21:55:51.802Z,101681.38
2023-01-29T21:58:19.845Z,101691.75
2023-01-29T22:00:48.807Z,101700.31
2023-01-29T22:03:15.626Z,101687.41
2023-01-29T22:05:42.217Z,101695.91
2023-01-29T22:08:09.662Z,101704.44
2023-01-29T22:10:36.634Z,101703.63
2023-01-29T22:13:03.563Z,101707.09
2023-01-29T22:15:30.074Z,101677.03
2023-01-29T22:17:56.624Z,101676.97
2023-01-29T22:20:30.025Z,101668.34
2023-01-29T22:22:58.642Z,101648.72
2023-01-29T22:25:25.185Z,101661.50
2023-01-29T22:27:51.764Z,101662.38
2023-01-29T22:30:19.109Z,101657.28
2023-01-29T22:32:45.920Z,101664.94
2023-01-29T22:35:12.448Z,101671.69
2023-01-29T22:37:38.972Z,101675.25
2023-01-29T22:40:06.308Z,101665.72
2023-01-29T22:42:32.819Z,101645.25
2023-01-29T22:44:59.303Z,101649.53
2023-01-29T22:47:25.768Z,101643.59
2023-01-29T22:49:52.455Z,101652.13
2023-01-29T22:52:22.307Z,101645.25
2023-01-29T22:54:48.893Z,101642.56
2023-01-29T22:57:15.617Z,101630.53
2023-01-29T22:59:42.153Z,101634.81
2023-01-29T23:02:09.431Z,101598.78
2023-01-29T23:04:35.983Z,101588.41
2023-01-29T23:07:03.413Z,101584.88
2023-01-29T23:09:29.916Z,101563.47
2023-01-29T23:11:56.384Z,101548.09
2023-01-29T23:14:22.917Z,101517.84
2023-01-29T23:16:49.417Z,101543.56
2023-01-29T23:19:15.940Z,101528.91
2023-01-29T23:21:42.479Z,101534.94
2023-01-29T23:24:09.641Z,101524.53
2023-01-29T23:26:54.986Z,101527.19
2023-01-29T23:29:21.670Z,101526.09
2023-01-29T23:31:48.275Z,101535.41
2023-01-29T23:34:15.202Z,101552.50
2023-01-29T23:36:42.229Z,101558.41
2023-01-29T23:39:09.128Z,101549.78
2023-01-29T23:41:35.915Z,101534.38
2023-01-29T23:44:02.505Z,101529.97
2023-01-29T23:46:29.011Z,101541.22
2023-01-29T23:48:55.693Z,101539.31
2023-01-29T23:51:22.341Z,101529.00
2023-01-29T23:53:48.867Z,101505.78
2023-01-29T23:56:15.406Z,101518.75
2023-01-29T23:58:41.994Z,101487.63
